This is the latest recevied weather packets stored in our database for station/object N0HEQ. If no packets are shown the sender has not sent any weather packets the latest 10 day(s).
| Time | Temp. | Humidity | Pressure | Rain* | Wind** | Luminosity | Snow |
|---|---|---|---|---|---|---|---|
| 1777571249 | 5.56° C | 72% | 1023.8 hPa | 0 mm | - | 145 W/m² | - |
| 1777570945 | 6.11° C | 71% | 1023.9 hPa | 0 mm | - | 148 W/m² | - |
| 1777570641 | 6.11° C | 73% | 1023.9 hPa | 0 mm | - | 148 W/m² | - |
| 1777570338 | 6.67° C | 73% | 1024 hPa | 0 mm | - | 163 W/m² | - |
| 1777570034 | 6.67° C | 71% | 1024.1 hPa | 0 mm | - | 170 W/m² | - |
| 1777569730 | 6.11° C | 71% | 1023.9 hPa | 0 mm | - | 219 W/m² | - |
| 1777569425 | 7.22° C | 70% | 1024 hPa | 0 mm | - | 235 W/m² | - |
| 1777569122 | 6.11° C | 71% | 1023.8 hPa | 0 mm | - | 262 W/m² | - |
| 1777568819 | 6.67° C | 69% | 1023.9 hPa | 0 mm | - | 197 W/m² | - |
| 1777568517 | 7.22° C | 70% | 1023.8 hPa | 0 mm | - | 211 W/m² | - |
| 1777568213 | 7.22° C | 68% | 1023.6 hPa | 0 mm | - | 287 W/m² | - |
| 1777567910 | 7.22° C | 68% | 1024 hPa | 0 mm | - | 236 W/m² | - |
| 1777567606 | 7.22° C | 66% | 1023.8 hPa | 0 mm | - | 277 W/m² | - |
| 1777567303 | 7.78° C | 64% | 1023.6 hPa | 0 mm | - | 287 W/m² | - |
| 1777567002 | 7.78° C | 64% | 1023.8 hPa | 0 mm | - | 305 W/m² | - |
| 1777566699 | 7.78° C | 67% | 1023.8 hPa | 0 mm | - | 315 W/m² | - |
| 1777566397 | 7.22° C | 67% | 1023.8 hPa | 0 mm | - | 320 W/m² | - |
| 1777566094 | 7.22° C | 67% | 1023.9 hPa | 0 mm | - | 251 W/m² | - |
| 1777565789 | 7.22° C | 65% | 1023.9 hPa | 0 mm | - | 313 W/m² | - |
| 1777565486 | 7.22° C | 64% | 1023.8 hPa | 0 mm | - | 350 W/m² | - |
| 1777565182 | 6.67° C | 69% | 1023.8 hPa | 0 mm | - | 257 W/m² | - |
| 1777564879 | 6.11° C | 72% | 1023.9 hPa | 0 mm | - | 225 W/m² | - |
| 1777564579 | 6.11° C | 70% | 1023.9 hPa | 0 mm | - | 190 W/m² | - |
| 1777564275 | 5.56° C | 70% | 1023.8 hPa | 0 mm | - | 173 W/m² | - |
| 1777563971 | 5.56° C | 70% | 1024 hPa | 0 mm | - | 133 W/m² | - |
* Rain latest hour (hover to see other rain measurements)
** Current wind speed in m/s (hover to see current wind gust speed)